createdAt,value
2018-12-13T00:00:59.318Z,2.18
2018-12-13T00:03:31.889Z,2.18
2018-12-13T00:06:04.898Z,2.16
2018-12-13T00:08:35.746Z,2.20
2018-12-13T00:11:06.600Z,2.16
2018-12-13T00:13:37.449Z,2.17
2018-12-13T00:16:08.841Z,2.11
2018-12-13T00:18:39.785Z,2.11
2018-12-13T00:21:10.768Z,2.07
2018-12-13T00:23:41.909Z,1.97
2018-12-13T00:26:12.798Z,1.95
2018-12-13T00:28:43.841Z,1.89
2018-12-13T00:31:14.699Z,1.85
2018-12-13T00:33:45.633Z,1.77
2018-12-13T00:36:17.581Z,1.78
2018-12-13T00:38:48.534Z,1.88
2018-12-13T00:41:19.471Z,1.81
2018-12-13T00:43:50.404Z,1.75
2018-12-13T00:46:21.341Z,1.79
2018-12-13T00:48:52.316Z,1.78
2018-12-13T00:51:23.225Z,1.73
2018-12-13T00:53:54.133Z,1.74
2018-12-13T00:56:25.006Z,1.69
2018-12-13T00:58:55.931Z,1.83
2018-12-13T01:01:27.086Z,1.84
2018-12-13T01:03:57.949Z,1.65
2018-12-13T01:06:29.653Z,1.68
2018-12-13T01:09:00.586Z,1.73
2018-12-13T01:11:32.278Z,1.72
2018-12-13T01:14:03.178Z,1.71
2018-12-13T01:16:34.029Z,1.70
2018-12-13T01:19:04.950Z,1.76
2018-12-13T01:21:35.805Z,1.70
2018-12-13T01:24:06.738Z,1.73
2018-12-13T01:26:37.614Z,1.73
2018-12-13T01:29:08.508Z,1.75
2018-12-13T01:31:39.353Z,1.80
2018-12-13T01:34:10.288Z,1.86
2018-12-13T01:36:41.208Z,1.82
2018-12-13T01:39:12.167Z,1.77
2018-12-13T01:41:43.175Z,1.69
2018-12-13T01:44:14.019Z,1.60
2018-12-13T01:46:45.081Z,1.65
2018-12-13T01:49:16.239Z,1.47
2018-12-13T01:51:47.157Z,1.58
2018-12-13T01:54:18.426Z,1.42
2018-12-13T01:56:49.320Z,1.29
2018-12-13T01:59:20.304Z,1.28
2018-12-13T02:01:51.511Z,1.29
2018-12-13T02:04:22.686Z,1.27
2018-12-13T02:06:58.730Z,1.31
2018-12-13T02:09:26.497Z,1.24
2018-12-13T02:11:57.470Z,1.28
2018-12-13T02:14:30.014Z,1.24
2018-12-13T02:17:00.934Z,1.18
2018-12-13T02:19:31.993Z,1.20
2018-12-13T02:22:03.319Z,1.16
2018-12-13T02:24:34.290Z,1.06
2018-12-13T02:27:06.518Z,1.09
2018-12-13T02:29:37.386Z,1.13
2018-12-13T02:32:08.318Z,1.06
2018-12-13T02:34:40.072Z,1.04
2018-12-13T02:37:11.010Z,1.12
2018-12-13T02:39:41.945Z,1.10
2018-12-13T02:42:13.715Z,1.09
2018-12-13T02:44:44.650Z,1.16
2018-12-13T02:47:15.597Z,1.11
2018-12-13T02:49:46.519Z,1.19
2018-12-13T02:52:17.729Z,1.19
2018-12-13T02:54:48.607Z,1.19
2018-12-13T02:57:19.528Z,1.14
2018-12-13T02:59:50.490Z,1.05
2018-12-13T03:02:21.410Z,1.08
2018-12-13T03:04:52.570Z,1.00
2018-12-13T03:07:23.479Z,1.10
2018-12-13T03:09:55.660Z,1.03
2018-12-13T03:12:26.483Z,0.96
2018-12-13T03:14:57.651Z,1.00
2018-12-13T03:17:28.558Z,1.00
2018-12-13T03:19:59.430Z,0.96
2018-12-13T03:22:30.541Z,0.86
2018-12-13T03:25:01.562Z,0.85
2018-12-13T03:27:32.738Z,0.91
2018-12-13T03:30:03.671Z,0.89
2018-12-13T03:32:34.838Z,0.94
2018-12-13T03:35:07.592Z,0.95
2018-12-13T03:37:39.510Z,0.94
2018-12-13T03:40:10.880Z,0.95
2018-12-13T03:42:41.747Z,0.99
2018-12-13T03:45:13.289Z,0.98
2018-12-13T03:47:44.247Z,1.02
2018-12-13T03:50:15.988Z,0.98
2018-12-13T03:52:46.925Z,1.02
2018-12-13T03:55:17.755Z,1.05
2018-12-13T03:57:48.606Z,1.06
2018-12-13T04:00:19.941Z,1.17
2018-12-13T04:02:50.898Z,1.18
2018-12-13T04:05:21.796Z,1.12
2018-12-13T04:07:52.779Z,1.18
2018-12-13T04:10:23.931Z,1.12
2018-12-13T04:12:54.862Z,1.18
2018-12-13T04:15:25.754Z,1.21
2018-12-13T04:17:57.342Z,1.22
2018-12-13T04:20:29.885Z,1.25
2018-12-13T04:23:00.758Z,1.27
2018-12-13T04:25:31.844Z,1.28
2018-12-13T04:28:02.747Z,1.22
2018-12-13T04:30:34.781Z,1.23
2018-12-13T04:33:05.767Z,1.25
2018-12-13T04:35:36.650Z,1.24
2018-12-13T04:38:07.842Z,1.20
2018-12-13T04:40:38.694Z,1.20
2018-12-13T04:43:09.585Z,1.20
2018-12-13T04:45:40.567Z,1.23
2018-12-13T04:48:11.446Z,1.23
2018-12-13T04:50:42.802Z,1.20
2018-12-13T04:53:13.771Z,1.12
2018-12-13T04:55:44.674Z,1.15
2018-12-13T04:58:15.614Z,1.15
2018-12-13T05:00:46.590Z,1.19
2018-12-13T05:03:17.475Z,1.16
2018-12-13T05:05:48.426Z,1.20
2018-12-13T05:08:19.353Z,1.17
2018-12-13T05:10:55.231Z,1.19
2018-12-13T05:13:26.145Z,1.17
2018-12-13T05:15:57.101Z,1.13
2018-12-13T05:18:28.074Z,1.06
2018-12-13T05:20:59.021Z,0.97
2018-12-13T05:23:29.906Z,1.01
2018-12-13T05:26:00.852Z,0.90
2018-12-13T05:28:32.198Z,0.87
2018-12-13T05:31:03.061Z,0.87
2018-12-13T05:33:34.300Z,0.89
2018-12-13T05:36:05.401Z,0.92
2018-12-13T05:38:36.282Z,0.87
2018-12-13T05:41:07.121Z,0.97
2018-12-13T05:43:38.023Z,0.91
2018-12-13T05:46:08.970Z,0.93
2018-12-13T05:48:40.226Z,0.91
2018-12-13T05:51:11.169Z,1.03
2018-12-13T05:53:42.082Z,1.01
2018-12-13T05:56:13.509Z,1.03
2018-12-13T05:58:44.382Z,1.07
2018-12-13T06:01:15.326Z,1.00
2018-12-13T06:03:46.312Z,0.77
2018-12-13T06:06:17.333Z,0.74
2018-12-13T06:08:48.755Z,0.64
2018-12-13T06:11:19.670Z,0.69
2018-12-13T06:13:56.948Z,0.74
2018-12-13T06:16:27.969Z,0.74
2018-12-13T06:18:59.232Z,0.76
2018-12-13T06:21:36.559Z,0.77
2018-12-13T06:24:03.289Z,0.84
2018-12-13T06:26:34.146Z,0.86
2018-12-13T06:29:05.565Z,0.91
2018-12-13T06:31:36.475Z,0.97
2018-12-13T06:34:07.946Z,0.97
2018-12-13T06:36:38.877Z,1.06
2018-12-13T06:39:10.552Z,1.12
2018-12-13T06:41:41.480Z,1.19
2018-12-13T06:44:12.398Z,1.25
2018-12-13T06:46:43.442Z,1.31
2018-12-13T06:49:14.393Z,1.34
2018-12-13T06:51:45.329Z,1.38
2018-12-13T06:54:16.361Z,1.42
2018-12-13T06:56:47.309Z,1.37
2018-12-13T06:59:18.230Z,1.35
2018-12-13T07:01:49.186Z,1.34
2018-12-13T07:04:20.109Z,1.35
2018-12-13T07:06:51.162Z,1.38
2018-12-13T07:09:22.001Z,1.39
2018-12-13T07:11:52.946Z,1.40
2018-12-13T07:14:23.839Z,1.44
2018-12-13T07:16:56.345Z,1.44
2018-12-13T07:19:27.281Z,1.53
2018-12-13T07:21:58.233Z,1.56
2018-12-13T07:24:29.256Z,1.59
2018-12-13T07:27:00.193Z,1.61
2018-12-13T07:29:32.173Z,1.67
2018-12-13T07:32:03.101Z,1.72
2018-12-13T07:34:34.121Z,1.67
2018-12-13T07:37:05.480Z,1.74
2018-12-13T07:39:36.441Z,1.76
2018-12-13T07:42:07.761Z,1.81
2018-12-13T07:44:38.750Z,1.88
2018-12-13T07:47:09.645Z,1.95
2018-12-13T07:49:40.589Z,1.91
2018-12-13T07:52:11.519Z,1.82
2018-12-13T07:54:42.669Z,1.87
2018-12-13T07:57:13.554Z,1.88
2018-12-13T07:59:44.429Z,1.95
2018-12-13T08:02:15.378Z,2.01
2018-12-13T08:04:46.322Z,2.17
2018-12-13T08:07:17.257Z,2.32
2018-12-13T08:09:48.113Z,2.41
2018-12-13T08:12:19.442Z,2.41
2018-12-13T08:14:50.287Z,2.43
2018-12-13T08:17:21.312Z,2.61
2018-12-13T08:19:54.087Z,2.69
2018-12-13T08:22:25.038Z,2.85
2018-12-13T08:24:55.882Z,2.93
2018-12-13T08:27:26.822Z,3.10
2018-12-13T08:29:57.660Z,3.10
2018-12-13T08:32:29.109Z,3.04
2018-12-13T08:35:00.018Z,2.99
2018-12-13T08:37:30.978Z,2.97
2018-12-13T08:40:02.018Z,2.95
2018-12-13T08:42:34.167Z,2.93
2018-12-13T08:45:06.434Z,2.86
2018-12-13T08:47:37.274Z,2.96
2018-12-13T08:50:09.302Z,2.93
2018-12-13T08:52:40.173Z,2.88
2018-12-13T08:55:11.126Z,2.83
2018-12-13T08:57:42.073Z,2.72
2018-12-13T09:00:13.418Z,2.69
2018-12-13T09:02:44.278Z,2.78
2018-12-13T09:05:15.199Z,2.73
2018-12-13T09:07:46.193Z,2.57
2018-12-13T09:10:17.051Z,2.37
2018-12-13T09:12:47.987Z,2.28
2018-12-13T09:15:19.840Z,2.30
2018-12-13T09:17:51.091Z,2.21
2018-12-13T09:20:22.121Z,2.07
2018-12-13T09:22:53.086Z,1.90
2018-12-13T09:25:24.221Z,1.86
2018-12-13T09:27:55.161Z,1.86
2018-12-13T09:30:26.086Z,1.85
2018-12-13T09:32:57.050Z,1.88
2018-12-13T09:35:27.897Z,1.90
2018-12-13T09:37:58.962Z,1.90
2018-12-13T09:40:29.834Z,1.91
2018-12-13T09:43:00.809Z,1.83
2018-12-13T09:45:31.724Z,1.85
2018-12-13T09:48:02.661Z,1.90
2018-12-13T09:50:33.579Z,1.81
2018-12-13T09:53:04.543Z,1.80
2018-12-13T09:55:35.394Z,1.97
2018-12-13T09:58:06.618Z,2.30
2018-12-13T10:00:37.577Z,2.40
2018-12-13T10:03:08.770Z,2.25
2018-12-13T10:05:39.645Z,2.06
2018-12-13T10:08:10.510Z,1.86
2018-12-13T10:10:41.428Z,1.84
2018-12-13T10:13:12.317Z,1.70
2018-12-13T10:15:43.588Z,1.71
2018-12-13T10:18:15.805Z,1.63
2018-12-13T10:20:46.944Z,1.63
2018-12-13T10:23:17.825Z,1.54
2018-12-13T10:25:49.069Z,1.55
2018-12-13T10:28:19.914Z,1.51
2018-12-13T10:30:50.868Z,1.61
2018-12-13T10:33:21.712Z,1.65
2018-12-13T10:35:52.574Z,1.78
2018-12-13T10:38:23.449Z,1.83
2018-12-13T10:40:54.542Z,1.90
2018-12-13T10:43:25.642Z,1.94
2018-12-13T10:45:57.078Z,1.94
2018-12-13T10:48:27.946Z,2.16
2018-12-13T10:50:58.778Z,2.24
2018-12-13T10:53:30.739Z,2.23
2018-12-13T10:56:01.746Z,2.22
2018-12-13T10:58:32.733Z,2.37
2018-12-13T11:01:08.886Z,2.36
2018-12-13T11:03:39.727Z,2.29
2018-12-13T11:06:10.642Z,2.36
2018-12-13T11:08:41.601Z,2.34
2018-12-13T11:11:12.509Z,2.25
2018-12-13T11:13:43.453Z,2.12
2018-12-13T11:16:14.491Z,2.18
2018-12-13T11:18:45.437Z,1.90
2018-12-13T11:21:17.471Z,1.90
2018-12-13T11:23:48.845Z,1.96
2018-12-13T11:26:19.894Z,2.03
2018-12-13T11:30:35.133Z,1.95
2018-12-13T11:33:06.315Z,1.98
2018-12-13T11:35:37.263Z,1.96
2018-12-13T11:38:09.356Z,2.03
2018-12-13T11:40:40.310Z,2.05
2018-12-13T11:43:11.431Z,2.13
2018-12-13T11:45:42.506Z,2.23
2018-12-13T11:48:13.401Z,2.25
2018-12-13T11:50:44.304Z,2.18
2018-12-13T11:53:15.270Z,2.01
2018-12-13T11:55:47.314Z,1.89
2018-12-13T11:58:18.840Z,1.98
2018-12-13T12:00:49.701Z,1.84
2018-12-13T12:03:20.666Z,1.83
2018-12-13T12:05:51.665Z,1.85
2018-12-13T12:08:23.656Z,1.89
2018-12-13T12:10:54.613Z,2.03
2018-12-13T12:13:25.521Z,2.21
2018-12-13T12:15:56.874Z,2.09
2018-12-13T12:18:28.033Z,2.12
2018-12-13T12:20:58.942Z,2.19
2018-12-13T12:23:29.901Z,2.21
2018-12-13T12:26:00.850Z,2.22
2018-12-13T12:28:31.762Z,2.25
2018-12-13T12:31:02.704Z,2.24
2018-12-13T12:33:33.634Z,2.26
2018-12-13T12:36:04.625Z,2.27
2018-12-13T12:38:35.838Z,2.16
2018-12-13T12:41:06.898Z,2.19
2018-12-13T12:43:38.091Z,2.22
2018-12-13T12:46:08.973Z,2.18
2018-12-13T12:48:39.846Z,2.27
2018-12-13T12:51:10.791Z,2.21
2018-12-13T12:53:41.662Z,2.07
2018-12-13T12:56:12.537Z,2.12
2018-12-13T12:58:43.434Z,2.02
2018-12-13T13:01:14.302Z,2.10
2018-12-13T13:03:45.141Z,2.09
2018-12-13T13:06:16.222Z,2.03
2018-12-13T13:08:47.309Z,2.12
2018-12-13T13:11:18.203Z,2.10
2018-12-13T13:13:49.593Z,2.13
2018-12-13T13:16:20.606Z,2.18
2018-12-13T13:18:51.570Z,2.19
2018-12-13T13:21:22.477Z,2.18
2018-12-13T13:23:53.645Z,2.22
2018-12-13T13:26:24.562Z,2.21
2018-12-13T13:28:55.518Z,2.14
2018-12-13T13:31:26.427Z,2.09
2018-12-13T13:33:57.410Z,2.09
2018-12-13T13:36:29.143Z,2.07
2018-12-13T13:39:00.089Z,2.11
2018-12-13T13:41:31.002Z,2.20
2018-12-13T13:44:01.974Z,2.23
2018-12-13T13:46:32.815Z,2.19
2018-12-13T13:49:03.787Z,2.17
2018-12-13T13:51:35.298Z,2.28
2018-12-13T13:54:06.423Z,2.25
2018-12-13T13:56:37.353Z,2.12
2018-12-13T13:59:08.718Z,2.11
2018-12-13T14:01:39.622Z,2.11
2018-12-13T14:06:46.762Z,2.30
2018-12-13T14:09:17.690Z,2.25
2018-12-13T14:11:48.630Z,2.18
2018-12-13T14:14:19.549Z,2.31
2018-12-13T14:16:50.622Z,2.34
2018-12-13T14:19:21.547Z,2.37
2018-12-13T14:21:53.468Z,2.38
2018-12-13T14:24:24.631Z,2.31
2018-12-13T14:26:55.890Z,2.33
2018-12-13T14:29:26.923Z,2.41
2018-12-13T14:31:58.136Z,2.36
2018-12-13T14:34:28.986Z,2.36
2018-12-13T14:37:00.234Z,2.34
2018-12-13T14:39:31.167Z,2.39
2018-12-13T14:42:05.243Z,2.41
2018-12-13T14:44:43.651Z,2.43
2018-12-13T14:47:14.600Z,2.46
2018-12-13T14:49:45.650Z,2.43
2018-12-13T14:52:16.657Z,2.46
2018-12-13T14:54:47.577Z,2.52
2018-12-13T14:57:18.722Z,2.56
2018-12-13T14:59:50.135Z,2.62
2018-12-13T15:02:21.206Z,2.55
2018-12-13T15:04:54.399Z,2.58
2018-12-13T15:07:25.339Z,2.49
2018-12-13T15:09:56.682Z,2.53
2018-12-13T15:12:27.607Z,2.53
2018-12-13T15:14:58.594Z,2.55
2018-12-13T15:17:29.482Z,2.45
2018-12-13T15:20:00.518Z,2.57
2018-12-13T15:22:31.440Z,2.50
2018-12-13T15:25:04.383Z,2.52
2018-12-13T15:27:35.569Z,2.52
2018-12-13T15:30:10.178Z,2.31
2018-12-13T15:32:41.017Z,2.38
2018-12-13T15:35:12.644Z,2.37
2018-12-13T15:37:43.737Z,2.26
2018-12-13T15:40:14.702Z,2.32
2018-12-13T15:42:45.582Z,2.31
2018-12-13T15:45:17.206Z,2.36
2018-12-13T15:47:48.134Z,2.28
2018-12-13T15:50:19.308Z,2.30
2018-12-13T15:52:52.614Z,2.37
2018-12-13T15:55:23.478Z,2.49
2018-12-13T15:57:55.057Z,2.46
2018-12-13T16:00:26.010Z,2.41
2018-12-13T16:02:57.360Z,2.38
2018-12-13T16:05:28.383Z,2.39
2018-12-13T16:07:59.408Z,2.40
2018-12-13T16:10:31.493Z,2.39
2018-12-13T16:13:02.736Z,2.42
2018-12-13T16:15:34.150Z,2.42
2018-12-13T16:18:05.522Z,2.46
2018-12-13T16:20:36.879Z,2.45
2018-12-13T16:23:07.746Z,2.51
2018-12-13T16:25:38.671Z,2.54
2018-12-13T16:28:09.714Z,2.58
2018-12-13T16:30:40.716Z,2.61
2018-12-13T16:33:12.818Z,2.59
2018-12-13T16:35:43.737Z,2.62
2018-12-13T16:38:14.723Z,2.60
2018-12-13T16:40:46.006Z,2.65
2018-12-13T16:43:17.273Z,2.56
2018-12-13T16:45:48.185Z,2.55
2018-12-13T16:48:19.128Z,2.51
2018-12-13T16:50:50.281Z,2.43
2018-12-13T16:53:21.249Z,2.41
2018-12-13T16:55:52.162Z,2.38
2018-12-13T16:58:23.037Z,2.43
2018-12-13T17:00:54.049Z,2.40
2018-12-13T17:03:38.662Z,2.24
2018-12-13T17:08:58.931Z,2.33
2018-12-13T17:11:29.832Z,2.28
2018-12-13T17:14:00.738Z,2.22
2018-12-13T17:16:31.610Z,2.28
2018-12-13T17:19:02.461Z,2.31
2018-12-13T17:21:33.343Z,2.27
2018-12-13T17:24:04.237Z,2.31
2018-12-13T17:26:35.126Z,2.35
2018-12-13T17:29:06.176Z,2.31
2018-12-13T17:31:37.014Z,2.31
2018-12-13T17:34:07.878Z,2.26
2018-12-13T17:36:40.042Z,2.22
2018-12-13T17:39:11.341Z,2.27
2018-12-13T17:41:42.212Z,2.29
2018-12-13T17:44:13.077Z,2.24
2018-12-13T17:46:43.985Z,2.26
2018-12-13T17:49:15.272Z,2.31
2018-12-13T17:51:46.305Z,2.30
2018-12-13T17:54:17.167Z,2.29
2018-12-13T17:56:49.438Z,2.30
2018-12-13T17:59:22.446Z,2.21
2018-12-13T18:01:53.433Z,2.29
2018-12-13T18:04:24.340Z,2.37
2018-12-13T18:06:55.218Z,2.32
2018-12-13T18:09:26.110Z,2.30
2018-12-13T18:11:57.134Z,2.32
2018-12-13T18:14:28.093Z,2.35
2018-12-13T18:17:00.994Z,2.34
2018-12-13T18:19:31.914Z,2.30
2018-12-13T18:22:02.941Z,2.34
2018-12-13T18:24:33.890Z,2.31
2018-12-13T18:27:04.813Z,2.43
2018-12-13T18:29:36.829Z,2.38
2018-12-13T18:32:07.946Z,2.34
2018-12-13T18:34:39.395Z,2.38
2018-12-13T18:37:10.373Z,2.36
2018-12-13T18:39:41.298Z,2.34
2018-12-13T18:42:12.314Z,2.40
2018-12-13T18:44:43.553Z,2.45
2018-12-13T18:47:14.565Z,2.45
2018-12-13T18:49:45.693Z,2.42
2018-12-13T18:52:16.822Z,2.36
2018-12-13T18:54:47.686Z,2.36
2018-12-13T18:57:19.058Z,2.30
2018-12-13T18:59:50.990Z,2.31
2018-12-13T19:02:23.196Z,2.33
2018-12-13T19:04:54.410Z,2.19
2018-12-13T19:07:25.885Z,2.25
2018-12-13T19:09:56.806Z,2.26
2018-12-13T19:12:28.567Z,2.15
2018-12-13T19:14:59.483Z,2.21
2018-12-13T19:17:30.383Z,2.18
2018-12-13T19:20:01.266Z,2.15
2018-12-13T19:22:33.256Z,2.10
2018-12-13T19:25:05.718Z,2.22
2018-12-13T19:27:37.897Z,2.08
2018-12-13T19:30:11.009Z,2.17
2018-12-13T19:32:41.927Z,2.21
2018-12-13T19:35:19.211Z,2.26
2018-12-13T19:37:45.750Z,2.20
2018-12-13T19:40:16.698Z,2.22
2018-12-13T19:42:47.726Z,2.26
2018-12-13T19:45:18.747Z,2.19
2018-12-13T19:47:50.430Z,2.13
2018-12-13T19:50:21.348Z,2.11
2018-12-13T19:52:52.707Z,2.05
2018-12-13T19:55:23.686Z,2.12
2018-12-13T19:57:54.690Z,2.14
2018-12-13T20:00:25.589Z,2.12
2018-12-13T20:02:56.970Z,2.09
2018-12-13T20:05:29.034Z,2.06
2018-12-13T20:08:00.306Z,2.07
2018-12-13T20:10:31.254Z,2.17
2018-12-13T20:13:02.142Z,2.05
2018-12-13T20:15:33.070Z,2.02
2018-12-13T20:18:03.958Z,2.01
2018-12-13T20:20:35.161Z,2.08
2018-12-13T20:23:06.090Z,2.08
2018-12-13T20:25:37.445Z,2.13
2018-12-13T20:28:08.470Z,2.19
2018-12-13T20:30:40.670Z,2.05
2018-12-13T20:33:11.687Z,2.12
2018-12-13T20:35:42.724Z,2.18
2018-12-13T20:38:14.874Z,2.20
2018-12-13T20:40:46.986Z,2.16
2018-12-13T20:43:18.725Z,2.16
2018-12-13T20:45:49.641Z,2.21
2018-12-13T20:48:20.521Z,2.20
2018-12-13T20:50:51.431Z,2.19
2018-12-13T20:53:22.394Z,2.21
2018-12-13T20:55:53.319Z,2.24
2018-12-13T20:58:24.279Z,2.24
2018-12-13T21:00:55.196Z,2.15
2018-12-13T21:03:26.035Z,2.17
2018-12-13T21:05:57.094Z,2.07
2018-12-13T21:08:28.765Z,2.14
2018-12-13T21:10:59.689Z,2.10
2018-12-13T21:13:30.550Z,2.07
2018-12-13T21:16:02.331Z,2.10
2018-12-13T21:18:34.023Z,2.16
2018-12-13T21:21:05.333Z,2.19
2018-12-13T21:23:36.198Z,2.25
2018-12-13T21:26:07.054Z,2.28
2018-12-13T21:28:38.879Z,2.35
2018-12-13T21:31:09.749Z,2.33
2018-12-13T21:33:40.910Z,2.24
2018-12-13T21:36:11.787Z,2.20
2018-12-13T21:38:42.700Z,2.26
2018-12-13T21:41:13.817Z,2.20
2018-12-13T21:43:45.058Z,2.24
2018-12-13T21:46:15.962Z,2.18
2018-12-13T21:48:46.855Z,2.18
2018-12-13T21:51:18.239Z,2.12
2018-12-13T21:53:49.082Z,2.15
2018-12-13T21:56:19.957Z,2.20
2018-12-13T21:58:50.827Z,2.16
2018-12-13T22:01:21.744Z,2.07
2018-12-13T22:03:52.713Z,2.07
2018-12-13T22:06:23.706Z,2.14
2018-12-13T22:08:54.605Z,2.11
2018-12-13T22:11:25.499Z,2.09
2018-12-13T22:13:56.371Z,2.17
2018-12-13T22:16:28.378Z,2.18
2018-12-13T22:18:59.263Z,2.23
2018-12-13T22:21:30.415Z,2.22
2018-12-13T22:24:01.365Z,2.23
2018-12-13T22:26:33.206Z,2.21
2018-12-13T22:29:04.277Z,2.23
2018-12-13T22:31:35.507Z,2.26
2018-12-13T22:34:06.405Z,2.28
2018-12-13T22:36:38.228Z,2.30
2018-12-13T22:39:09.974Z,2.31
2018-12-13T22:41:40.919Z,2.28
2018-12-13T22:44:12.636Z,2.23
2018-12-13T22:46:43.587Z,2.15
2018-12-13T22:49:14.423Z,2.11
2018-12-13T22:51:45.353Z,2.15
2018-12-13T22:54:16.421Z,2.17
2018-12-13T22:56:47.279Z,2.09
2018-12-13T22:59:19.610Z,2.05
2018-12-13T23:01:50.525Z,2.07
2018-12-13T23:04:22.622Z,2.02
2018-12-13T23:06:53.526Z,1.97
2018-12-13T23:09:25.711Z,1.94
2018-12-13T23:11:58.066Z,1.86
2018-12-13T23:14:32.902Z,1.86
2018-12-13T23:17:03.837Z,1.88
2018-12-13T23:19:36.028Z,1.91
2018-12-13T23:22:07.052Z,1.94
2018-12-13T23:24:38.215Z,1.99
2018-12-13T23:27:12.340Z,2.02
2018-12-13T23:29:43.948Z,2.05
2018-12-13T23:32:15.848Z,2.09
2018-12-13T23:34:46.861Z,2.10
2018-12-13T23:37:19.037Z,2.12
2018-12-13T23:39:49.975Z,2.20
2018-12-13T23:42:21.901Z,2.27
2018-12-13T23:44:52.837Z,2.19
2018-12-13T23:47:24.090Z,2.19
2018-12-13T23:49:56.056Z,2.11
2018-12-13T23:52:27.010Z,2.08
2018-12-13T23:54:58.074Z,2.12
2018-12-13T23:57:29.507Z,2.05
